Time;durP1;ratioP1;P1;durP2;ratioP2;P2;SDS_P1;SDS_P2;PMS_P1;PMS_P2;Temp;Humidity;BMP_temperature;BMP_pressure;BME280_temperature;BME280_humidity;BME280_pressure;Samples;Min_cycle;Max_cycle;Signal;HPM_P1;HPM_P2
2022/08/16 08:06:00;;;;;;;;;;;15.30;63.20;;;;;;6122859;23;20418;-74
2022/08/16 08:08:27;;;;;;;;;;;15.30;63.90;;;;;;6119460;23;19947;-72
2022/08/16 08:10:54;;;;;;;;;;;15.20;64.00;;;;;;6123398;23;19909;-74
2022/08/16 08:13:21;;;;;;;;;;;15.20;64.40;;;;;;6120678;23;19917;-74
2022/08/16 08:15:48;;;;;;;;;;;15.20;64.70;;;;;;6072346;23;19909;-74
2022/08/16 08:18:15;;;;;;;;;;;15.20;64.90;;;;;;6122877;23;19916;-75
2022/08/16 08:20:44;;;;;;;;;;;15.20;64.60;;;;;;6122504;23;19909;-74
2022/08/16 08:23:12;;;;;;;;;;;15.10;64.60;;;;;;6097839;23;19933;-77
2022/08/16 08:25:39;;;;;;;;;;;15.20;64.50;;;;;;6120911;23;20729;-76
2022/08/16 08:28:05;;;;;;;;;;;15.10;64.50;;;;;;6097181;23;19936;-76
2022/08/16 08:30:33;;;;;;;;;;;15.10;64.40;;;;;;6121412;23;19913;-75
2022/08/16 08:32:59;;;;;;;;;;;15.10;64.50;;;;;;6096868;23;19917;-74
2022/08/16 08:35:26;;;;;;;;;;;15.10;63.00;;;;;;6097014;23;20321;-73
2022/08/16 08:37:54;;;;;;;;;;;15.20;63.40;;;;;;6122853;23;19909;-73
2022/08/16 08:40:21;;;;;;;;;;;15.10;63.70;;;;;;6122765;23;19905;-74
2022/08/16 08:42:47;;;;;;;;;;;15.10;63.90;;;;;;6122035;23;19909;-74
2022/08/16 08:45:14;;;;;;;;;;;15.00;64.00;;;;;;6122098;23;19957;-75
2022/08/16 08:47:42;;;;;;;;;;;15.00;63.90;;;;;;6123342;23;19909;-76
2022/08/16 08:50:08;;;;;;;;;;;15.00;63.90;;;;;;6123036;23;19913;-73
2022/08/16 08:52:36;;;;;;;;;;;15.00;63.80;;;;;;6123550;23;19944;-74
2022/08/16 08:55:06;;;;;;;;;;;15.00;63.60;;;;;;6096663;23;19919;-73
2022/08/16 08:57:33;;;;;;;;;;;14.90;63.90;;;;;;6123345;23;20015;-73
2022/08/16 09:00:00;;;;;;;;;;;14.90;63.80;;;;;;6095713;23;19917;-73
2022/08/16 09:02:26;;;;;;;;;;;14.90;63.70;;;;;;6120675;23;19940;-74
2022/08/16 09:04:53;;;;;;;;;;;14.90;63.90;;;;;;6124412;23;19999;-74
2022/08/16 09:07:20;;;;;;;;;;;14.80;64.10;;;;;;6150911;23;20616;-73
2022/08/16 09:09:47;;;;;;;;;;;14.80;63.90;;;;;;6125100;23;20354;-74
2022/08/16 09:12:17;;;;;;;;;;;14.80;64.20;;;;;;6126161;23;20275;-73
2022/08/16 09:14:44;;;;;;;;;;;14.80;64.00;;;;;;6126112;23;19912;-74
2022/08/16 09:17:11;;;;;;;;;;;14.80;64.10;;;;;;6152467;23;19959;-74
2022/08/16 09:19:38;;;;;;;;;;;14.80;64.20;;;;;;6152012;23;20012;-74
2022/08/16 09:22:05;;;;;;;;;;;14.80;63.60;;;;;;6150484;23;20196;-74
2022/08/16 09:24:32;;;;;;;;;;;14.80;63.90;;;;;;6151038;23;19912;-74
2022/08/16 09:26:58;;;;;;;;;;;14.80;63.60;;;;;;6098930;23;20216;-73
2022/08/16 09:29:25;;;;;;;;;;;14.80;63.40;;;;;;6151239;23;19913;-74
2022/08/16 09:31:51;;;;;;;;;;;14.70;63.70;;;;;;6124697;23;19992;-75
2022/08/16 09:34:18;;;;;;;;;;;14.70;63.50;;;;;;6126122;23;20031;-76
2022/08/16 09:36:45;;;;;;;;;;;14.70;63.30;;;;;;6151406;23;19909;-75
2022/08/16 09:39:11;;;;;;;;;;;14.70;63.10;;;;;;6101523;23;20231;-77
2022/08/16 09:41:38;;;;;;;;;;;14.70;63.60;;;;;;6151565;23;19909;-75
2022/08/16 09:44:05;;;;;;;;;;;14.60;63.30;;;;;;6151620;23;19940;-75
2022/08/16 09:46:32;;;;;;;;;;;14.60;63.50;;;;;;6150567;23;20269;-74
2022/08/16 09:48:58;;;;;;;;;;;14.60;63.20;;;;;;6125717;23;19909;-74
2022/08/16 09:51:25;;;;;;;;;;;14.50;62.90;;;;;;6150783;23;20395;-75
2022/08/16 09:53:54;;;;;;;;;;;14.50;62.90;;;;;;6125024;23;19991;-75
2022/08/16 09:56:29;;;;;;;;;;;14.50;63.20;;;;;;6125755;23;20043;-77
2022/08/16 09:58:56;;;;;;;;;;;14.50;63.00;;;;;;6151528;23;20035;-76
2022/08/16 10:01:23;;;;;;;;;;;14.50;62.60;;;;;;6151366;23;19908;-75
2022/08/16 10:03:50;;;;;;;;;;;14.50;62.70;;;;;;6150670;23;19908;-75
2022/08/16 10:06:17;;;;;;;;;;;14.50;62.50;;;;;;6124752;23;19913;-74
2022/08/16 10:08:44;;;;;;;;;;;14.40;62.80;;;;;;6101173;23;19996;-73
2022/08/16 10:13:55;;;;;;;;;;;14.30;62.10;;;;;;6151585;23;19923;-77
2022/08/16 10:16:22;;;;;;;;;;;14.40;62.20;;;;;;6151134;23;19908;-78
2022/08/16 10:18:49;;;;;;;;;;;14.40;61.80;;;;;;6150240;23;19960;-74
2022/08/16 10:21:15;;;;;;;;;;;14.40;61.80;;;;;;6125905;23;19915;-76
2022/08/16 10:23:42;;;;;;;;;;;14.30;61.90;;;;;;6150769;23;19905;-75
2022/08/16 10:26:09;;;;;;;;;;;14.40;61.80;;;;;;6122648;23;19912;-79
2022/08/16 10:28:36;;;;;;;;;;;14.30;61.90;;;;;;6150562;23;19908;-76
2022/08/16 10:31:02;;;;;;;;;;;14.30;61.90;;;;;;6125623;23;19909;-77
2022/08/16 10:33:29;;;;;;;;;;;14.30;62.20;;;;;;6125722;23;20251;-81
2022/08/16 10:35:56;;;;;;;;;;;14.30;62.00;;;;;;6151257;23;19909;-83
2022/08/16 10:38:22;;;;;;;;;;;14.20;62.10;;;;;;6151999;23;20364;-82
2022/08/16 10:40:49;;;;;;;;;;;14.20;62.60;;;;;;6125606;23;20188;-82
2022/08/16 10:43:16;;;;;;;;;;;14.20;62.50;;;;;;6151651;23;19904;-81
2022/08/16 10:45:42;;;;;;;;;;;14.20;62.90;;;;;;6151437;23;19909;-83
2022/08/16 10:48:09;;;;;;;;;;;14.10;62.70;;;;;;6151098;23;19939;-81
2022/08/16 10:50:36;;;;;;;;;;;14.10;62.60;;;;;;6150744;23;20320;-81
2022/08/16 10:53:06;;;;;;;;;;;14.10;62.50;;;;;;6151452;23;20452;-73
2022/08/16 10:55:36;;;;;;;;;;;14.00;62.70;;;;;;6126001;23;19908;-80
2022/08/16 10:58:04;;;;;;;;;;;14.00;63.30;;;;;;6151544;23;20275;-81
2022/08/16 11:00:31;;;;;;;;;;;14.00;63.20;;;;;;6126169;23;19944;-85
2022/08/16 11:03:02;;;;;;;;;;;14.00;63.10;;;;;;6125721;23;19955;-83
2022/08/16 11:05:30;;;;;;;;;;;14.00;63.30;;;;;;6125481;23;19920;-80
2022/08/16 11:07:57;;;;;;;;;;;13.90;63.40;;;;;;6126154;23;20113;-84
2022/08/16 11:10:25;;;;;;;;;;;13.90;63.80;;;;;;6125282;23;20304;-82
2022/08/16 11:12:51;;;;;;;;;;;13.80;63.80;;;;;;6125517;23;19917;-80
2022/08/16 11:15:19;;;;;;;;;;;13.70;64.10;;;;;;6150827;23;19920;-82
2022/08/16 11:17:46;;;;;;;;;;;13.70;64.30;;;;;;6126069;23;19908;-83
2022/08/16 11:20:15;;;;;;;;;;;13.70;64.70;;;;;;6152407;23;19913;-82
2022/08/16 11:22:41;;;;;;;;;;;13.70;64.70;;;;;;6151766;23;20209;-78
2022/08/16 11:25:08;;;;;;;;;;;13.70;64.70;;;;;;6148528;23;19913;-78
2022/08/16 11:27:35;;;;;;;;;;;13.70;64.70;;;;;;6150898;23;19983;-84
2022/08/16 11:30:05;;;;;;;;;;;13.70;65.10;;;;;;6149885;23;20329;-76
2022/08/16 11:32:33;;;;;;;;;;;13.60;65.40;;;;;;6151270;23;19971;-76
2022/08/16 11:35:01;;;;;;;;;;;13.60;65.30;;;;;;6149848;23;19916;-74
2022/08/16 11:37:27;;;;;;;;;;;13.50;65.50;;;;;;6150648;23;19908;-76
2022/08/16 11:39:54;;;;;;;;;;;13.50;65.60;;;;;;6150641;23;19912;-75
2022/08/16 11:42:20;;;;;;;;;;;13.50;65.80;;;;;;6125112;23;19932;-74
2022/08/16 11:44:47;;;;;;;;;;;13.50;65.90;;;;;;6124647;23;19909;-75
2022/08/16 11:47:14;;;;;;;;;;;13.50;66.00;;;;;;6150444;23;19912;-73
2022/08/16 11:49:40;;;;;;;;;;;13.40;66.20;;;;;;6151159;23;19908;-73
2022/08/16 11:52:07;;;;;;;;;;;13.40;66.40;;;;;;6150909;23;19908;-73
2022/08/16 11:54:33;;;;;;;;;;;13.40;66.40;;;;;;6150532;23;19979;-73
2022/08/16 11:57:00;;;;;;;;;;;13.30;66.60;;;;;;6150459;23;20243;-74
2022/08/16 11:59:28;;;;;;;;;;;13.30;66.70;;;;;;6124833;23;20305;-72
2022/08/16 12:01:57;;;;;;;;;;;13.30;66.70;;;;;;6151260;23;19984;-75
2022/08/16 12:04:25;;;;;;;;;;;13.20;67.10;;;;;;6124785;23;19987;-73
2022/08/16 12:06:51;;;;;;;;;;;13.20;67.30;;;;;;6151172;23;19912;-73
2022/08/16 12:09:18;;;;;;;;;;;13.20;67.30;;;;;;6151313;23;20306;-74
2022/08/16 12:11:45;;;;;;;;;;;13.20;67.40;;;;;;6125567;23;19908;-73
2022/08/16 12:14:11;;;;;;;;;;;13.20;67.50;;;;;;6150293;23;20387;-73
2022/08/16 12:16:38;;;;;;;;;;;13.10;67.90;;;;;;6100520;23;19912;-73
2022/08/16 12:19:05;;;;;;;;;;;13.10;67.90;;;;;;6126685;23;19905;-73
2022/08/16 12:21:32;;;;;;;;;;;13.20;67.90;;;;;;6102522;23;19909;-71
2022/08/16 12:23:59;;;;;;;;;;;13.20;68.00;;;;;;6153107;23;19912;-73
2022/08/16 12:26:26;;;;;;;;;;;13.20;68.00;;;;;;6149923;23;19919;-76
2022/08/16 12:28:53;;;;;;;;;;;13.10;68.20;;;;;;6126583;23;20206;-72
2022/08/16 12:31:20;;;;;;;;;;;13.10;68.00;;;;;;6152677;23;19935;-72
2022/08/16 12:33:47;;;;;;;;;;;13.00;68.00;;;;;;6154542;23;20190;-72
2022/08/16 12:36:15;;;;;;;;;;;13.10;68.10;;;;;;6156468;23;19916;-73
2022/08/16 12:38:42;;;;;;;;;;;13.00;68.20;;;;;;6130124;23;19904;-73
2022/08/16 12:41:09;;;;;;;;;;;13.00;68.10;;;;;;6130145;23;20063;-72
2022/08/16 12:43:37;;;;;;;;;;;13.00;68.30;;;;;;6156454;23;19909;-72
2022/08/16 12:54:06;;;;;;;;;;;13.00;68.20;;;;;;6152896;23;19968;-72
2022/08/16 12:56:33;;;;;;;;;;;12.90;68.20;;;;;;6155706;23;19936;-73
2022/08/16 12:59:00;;;;;;;;;;;12.90;67.90;;;;;;6156031;23;19969;-72
2022/08/16 13:01:29;;;;;;;;;;;12.90;68.10;;;;;;6130111;23;19987;-72
2022/08/16 13:03:57;;;;;;;;;;;12.90;67.90;;;;;;6129668;23;20284;-72
2022/08/16 13:06:24;;;;;;;;;;;12.90;67.80;;;;;;6155471;23;19904;-72
2022/08/16 13:08:51;;;;;;;;;;;12.80;67.70;;;;;;6129894;23;20340;-72
2022/08/16 13:11:20;;;;;;;;;;;12.80;67.80;;;;;;6129710;23;19991;-75
2022/08/16 13:13:46;;;;;;;;;;;12.80;67.70;;;;;;6130073;23;19916;-72
2022/08/16 13:16:13;;;;;;;;;;;12.80;67.70;;;;;;6155638;23;20336;-72
2022/08/16 13:18:40;;;;;;;;;;;12.80;68.00;;;;;;6155261;23;20285;-73
2022/08/16 13:21:06;;;;;;;;;;;12.80;68.10;;;;;;6155372;23;19948;-72
2022/08/16 13:23:33;;;;;;;;;;;12.70;67.90;;;;;;6155263;23;19943;-72
2022/08/16 13:26:00;;;;;;;;;;;12.70;68.00;;;;;;6154663;23;19912;-72
2022/08/16 13:28:26;;;;;;;;;;;12.70;68.00;;;;;;6155375;23;19904;-73
2022/08/16 13:30:54;;;;;;;;;;;12.70;68.10;;;;;;6155038;23;19911;-73
2022/08/16 13:33:25;;;;;;;;;;;12.70;67.90;;;;;;6155446;23;20926;-72
2022/08/16 13:35:52;;;;;;;;;;;12.70;68.10;;;;;;6155622;23;19915;-73
2022/08/16 13:38:19;;;;;;;;;;;12.70;67.90;;;;;;6155065;23;19908;-73
2022/08/16 13:40:45;;;;;;;;;;;12.70;68.00;;;;;;6156037;23;19911;-72
2022/08/16 13:43:12;;;;;;;;;;;12.70;68.00;;;;;;6155661;23;19912;-72
2022/08/16 13:45:39;;;;;;;;;;;12.70;68.00;;;;;;6155904;23;19947;-72
2022/08/16 13:48:06;;;;;;;;;;;12.70;68.10;;;;;;6155667;23;20264;-72
2022/08/16 13:50:33;;;;;;;;;;;12.60;68.10;;;;;;6129459;23;19940;-72
